Time;durP1;ratioP1;P1;durP2;ratioP2;P2;SDS_P1;SDS_P2;PMS_P1;PMS_P2;Temp;Humidity;BMP_temperature;BMP_pressure;BME280_temperature;BME280_humidity;BME280_pressure;Samples;Min_cycle;Max_cycle;Signal;HPM_P1;HPM_P2
2022/06/12 00:00:14;;;;;;;19.40;13.10;;;;;;;13.40;71.20;99998.33;440462;1269;143106;-58
2022/06/12 00:10:37;;;;;;;15.40;13.40;;;;;;;13.53;72.31;99990.80;443341;1269;145792;-58
2022/06/12 00:21:11;;;;;;;17.70;13.70;;;;;;;13.52;72.23;99993.87;447872;1269;145682;-58
2022/06/12 00:31:35;;;;;;;18.30;12.70;;;;;;;13.42;72.57;99990.11;447846;1269;142900;-58
2022/06/12 00:41:57;;;;;;;14.20;11.90;;;;;;;13.29;72.66;99983.24;434619;1269;142616;-57
2022/06/12 00:52:23;;;;;;;14.80;13.10;;;;;;;13.20;72.99;99985.79;445367;1269;142342;-58
2022/06/12 01:02:45;;;;;;;15.70;13.30;;;;;;;13.33;73.36;99986.69;438008;1269;143251;-57
2022/06/12 01:13:11;;;;;;;15.20;13.60;;;;;;;13.46;73.37;99977.92;436479;1268;142635;-57
2022/06/12 01:23:55;;;;;;;20.30;16.10;;;;;;;13.49;73.57;99971.02;443776;1270;143165;-57
2022/06/12 01:34:29;;;;;;;15.70;14.10;;;;;;;13.53;73.75;99963.83;433803;1270;142022;-58
2022/06/12 01:45:01;;;;;;;18.60;14.00;;;;;;;13.44;73.99;99961.66;432299;1269;142082;-58
2022/06/12 01:55:30;;;;;;;15.90;14.30;;;;;;;13.25;74.19;99964.17;438984;1270;145885;-58
2022/06/12 02:05:59;;;;;;;23.70;14.80;;;;;;;13.10;74.83;99966.42;447878;1269;142138;-58
2022/06/12 02:16:26;;;;;;;15.90;14.20;;;;;;;13.10;75.02;99965.23;447857;1269;143831;-56
2022/06/12 02:26:59;;;;;;;17.60;14.10;;;;;;;13.33;75.26;99960.64;437884;1268;142639;-58
2022/06/12 02:37:26;;;;;;;16.20;12.90;;;;;;;13.64;75.10;99957.30;438027;1269;143958;-58
2022/06/12 02:47:48;;;;;;;15.10;13.00;;;;;;;13.87;74.84;99950.73;444483;1269;145121;-57
2022/06/12 02:58:18;;;;;;;17.10;13.70;;;;;;;14.15;74.48;99952.98;438865;1270;142679;-57
2022/06/12 03:08:42;;;;;;;18.40;12.70;;;;;;;14.49;74.16;99954.00;431535;1269;142619;-57
2022/06/12 03:19:09;;;;;;;12.60;11.30;;;;;;;14.88;73.56;99951.13;431310;1270;147971;-58
2022/06/12 03:29:38;;;;;;;12.10;10.40;;;;;;;15.47;72.63;99953.50;441885;1269;143636;-58
2022/06/12 03:40:08;;;;;;;9.50;8.50;;;;;;;16.14;71.21;99938.67;444428;1269;142533;-58
2022/06/12 03:50:39;;;;;;;8.10;7.40;;;;;;;16.89;69.69;99933.34;429929;1270;142027;-57
2022/06/12 04:01:01;;;;;;;8.70;7.70;;;;;;;20.92;67.56;99925.77;434651;1270;144983;-58
2022/06/12 04:11:27;;;;;;;6.70;5.60;;;;;;;27.41;57.81;99937.71;431432;1270;143556;-57
2022/06/12 04:21:56;;;;;;;5.10;4.60;;;;;;;32.17;48.95;99936.34;431233;1270;142558;-57
2022/06/12 04:32:18;;;;;;;6.70;5.40;;;;;;;31.61;42.97;99942.20;433976;1270;141266;-57
2022/06/12 04:42:40;;;;;;;4.80;4.30;;;;;;;31.34;42.25;99948.77;431841;1270;145162;-57
2022/06/12 04:53:02;;;;;;;4.60;3.00;;;;;;;36.92;37.79;99945.15;430873;1270;140279;-60
2022/06/12 05:03:24;;;;;;;4.20;2.80;;;;;;;42.68;31.20;99938.42;431026;1270;145688;-58
2022/06/12 05:13:46;;;;;;;3.40;2.50;;;;;;;42.30;27.74;99942.77;441044;1269;146550;-60
2022/06/12 05:24:09;;;;;;;2.40;2.20;;;;;;;44.65;25.76;99942.00;438312;1269;141874;-59
2022/06/12 05:34:31;;;;;;;2.80;2.10;;;;;;;49.01;22.16;99934.80;444168;1269;141406;-59
2022/06/12 05:44:53;;;;;;;3.60;2.70;;;;;;;46.70;20.91;99931.81;439218;1270;152609;-59
2022/06/12 05:55:15;;;;;;;2.50;2.00;;;;;;;46.33;20.67;99923.66;442327;1269;140446;-60
2022/06/12 06:05:38;;;;;;;2.60;1.80;;;;;;;46.56;19.70;99924.66;446883;1269;141532;-59
2022/06/12 06:16:00;;;;;;;3.30;2.60;;;;;;;42.47;20.21;99929.36;447617;1269;143868;-60
2022/06/12 06:26:23;;;;;;;3.90;2.10;;;;;;;39.13;22.14;99931.74;446640;1269;143153;-60
2022/06/12 06:36:44;;;;;;;3.60;2.00;;;;;;;41.74;22.01;99939.83;447591;1269;141828;-60
2022/06/12 06:47:08;;;;;;;4.40;2.70;;;;;;;50.00;17.72;99942.42;446642;1270;141115;-60
2022/06/12 06:57:29;;;;;;;3.60;3.30;;;;;;;53.66;15.43;99951.30;440145;1270;145758;-59
2022/06/12 07:07:51;;;;;;;5.20;4.80;;;;;;;55.01;13.54;99945.73;446742;1269;151421;-60
2022/06/12 07:18:14;;;;;;;9.90;9.40;;;;;;;56.24;13.09;99931.59;438276;1270;142709;-61
2022/06/12 07:28:37;;;;;;;7.60;7.10;;;;;;;58.42;12.18;99923.33;447552;1270;141280;-58
2022/06/12 07:38:59;;;;;;;5.90;5.50;;;;;;;54.92;12.62;99910.36;447269;1270;141790;-60
2022/06/12 07:49:38;;;;;;;3.20;2.40;;;;;;;57.16;11.48;99915.05;442557;1270;142352;-60
2022/06/12 07:59:59;;;;;;;2.10;1.80;;;;;;;48.26;13.57;99900.69;431548;1271;145433;-59
2022/06/12 08:10:22;;;;;;;1.30;1.20;;;;;;;41.13;17.01;99905.09;436071;1270;141361;-58
2022/06/12 08:20:47;;;;;;;2.40;1.90;;;;;;;37.66;19.19;99905.39;441568;1270;141934;-58
2022/06/12 08:31:12;;;;;;;4.60;1.70;;;;;;;35.62;21.03;99912.92;445888;1269;335003;-58
2022/06/12 08:41:40;;;;;;;2.10;1.50;;;;;;;34.09;22.29;99911.10;443760;1269;141856;-59
2022/06/12 08:52:10;;;;;;;8.40;1.50;;;;;;;33.11;23.52;99911.92;447566;1269;141142;-59
2022/06/12 09:02:36;;;;;;;5.50;1.90;;;;;;;33.03;24.31;99910.84;431275;1271;142951;-58
2022/06/12 09:13:09;;;;;;;5.30;1.70;;;;;;;32.19;25.13;99901.48;433487;1271;141046;-58
2022/06/12 09:23:39;;;;;;;1.70;1.40;;;;;;;32.04;25.80;99899.73;431126;1270;141497;-58
2022/06/12 09:34:09;;;;;;;3.40;1.70;;;;;;;31.66;26.15;99895.44;432064;1271;140860;-57
2022/06/12 09:44:39;;;;;;;2.80;2.00;;;;;;;30.55;27.63;99883.91;446634;1270;141154;-58
2022/06/12 09:55:07;;;;;;;3.60;1.90;;;;;;;29.80;28.77;99871.42;443719;1269;142011;-58
2022/06/12 10:05:38;;;;;;;3.30;2.20;;;;;;;29.30;28.75;99859.80;432059;1269;141196;-57
2022/06/12 10:16:06;;;;;;;4.70;1.80;;;;;;;28.81;29.73;99849.31;432503;1270;141348;-58
2022/06/12 10:26:31;;;;;;;2.20;1.30;;;;;;;28.42;29.93;99847.69;434741;1270;143083;-58
2022/06/12 10:36:52;;;;;;;2.20;1.80;;;;;;;27.97;30.35;99835.77;434405;1270;146672;-58
2022/06/12 10:47:22;;;;;;;3.60;1.90;;;;;;;27.90;30.92;99822.36;446703;1269;141423;-56
2022/06/12 10:57:51;;;;;;;2.50;1.60;;;;;;;27.91;31.01;99810.41;439439;1268;141800;-57
2022/06/12 11:08:26;;;;;;;3.50;2.40;;;;;;;28.31;31.71;99802.25;431040;1270;141449;-65
2022/06/12 11:19:11;;;;;;;5.60;2.60;;;;;;;28.30;31.50;99796.36;439349;1269;151819;-58
2022/06/12 11:29:49;;;;;;;14.70;2.40;;;;;;;28.37;31.55;99786.09;434066;1270;142116;-57
2022/06/12 11:40:22;;;;;;;3.20;1.70;;;;;;;28.50;31.14;99778.13;431528;1270;141724;-57
2022/06/12 11:50:50;;;;;;;1.40;1.30;;;;;;;28.76;30.93;99763.58;442388;1269;142170;-58
2022/06/12 12:01:20;;;;;;;1.80;1.50;;;;;;;28.96;31.26;99755.13;431230;1270;141709;-57
2022/06/12 12:11:46;;;;;;;2.40;1.90;;;;;;;29.05;31.48;99744.63;431103;1270;141299;-61
2022/06/12 12:22:15;;;;;;;4.80;2.80;;;;;;;29.40;30.92;99736.85;437805;1270;140404;-59
2022/06/12 12:32:38;;;;;;;1.60;1.50;;;;;;;29.23;30.24;99727.50;437727;1269;141319;-58
2022/06/12 12:43:05;;;;;;;4.10;2.70;;;;;;;28.71;30.81;99722.27;432948;1270;141536;-58
2022/06/12 12:53:27;;;;;;;;;;;;;;;28.48;32.15;99723.67;434400;1270;141321;-58
2022/06/12 13:03:50;;;;;;;3.10;2.70;;;;;;;28.54;32.43;99715.30;446513;1269;128025;-59
2022/06/12 13:14:33;;;;;;;2.40;1.70;;;;;;;28.40;32.02;99713.77;443334;1269;141885;-57
2022/06/12 13:25:02;;;;;;;4.70;4.30;;;;;;;28.08;31.70;99712.71;439764;1269;151434;-59
2022/06/12 13:35:29;;;;;;;6.40;2.70;;;;;;;28.03;32.11;99709.15;434244;1269;141974;-58
2022/06/12 13:45:51;;;;;;;;;;;;;;;27.58;33.79;99711.96;437234;1269;140648;-59
2022/06/12 13:56:16;;;;;;;3.70;2.00;;;;;;;27.61;34.62;99706.06;432204;1270;128048;-58
2022/06/12 14:06:40;;;;;;;4.70;1.80;;;;;;;27.64;34.27;99695.30;433481;1270;140834;-60
2022/06/12 14:17:04;;;;;;;2.60;2.10;;;;;;;27.20;33.59;99686.76;434673;1269;141834;-61
2022/06/12 14:27:36;;;;;;;2.10;1.90;;;;;;;26.86;33.57;99680.55;439403;1269;140438;-59
2022/06/12 14:37:58;;;;;;;2.30;2.00;;;;;;;26.48;32.92;99664.67;435821;1270;141390;-59
2022/06/12 14:48:22;;;;;;;4.00;1.50;;;;;;;26.36;32.90;99662.59;435000;1269;141397;-58
2022/06/12 14:58:43;;;;;;;2.60;1.40;;;;;;;26.22;32.28;99660.17;438638;1269;141599;-58
2022/06/12 15:09:05;;;;;;;2.20;1.20;;;;;;;26.18;31.05;99650.48;444698;1269;141270;-62
2022/06/12 15:19:27;;;;;;;2.70;1.40;;;;;;;26.15;31.08;99638.76;438464;1269;141411;-58
2022/06/12 15:29:49;;;;;;;5.60;1.60;;;;;;;26.26;31.04;99622.73;437254;1270;140800;-58
2022/06/12 15:40:17;;;;;;;2.70;0.90;;;;;;;26.32;30.70;99605.03;441715;1269;140846;-59
2022/06/12 15:50:39;;;;;;;1.10;1.10;;;;;;;26.11;30.69;99595.36;438889;1270;140690;-63
2022/06/12 16:01:01;;;;;;;1.60;1.50;;;;;;;25.96;30.90;99588.38;438731;1269;140772;-59
2022/06/12 16:11:25;;;;;;;1.50;1.00;;;;;;;25.85;31.49;99578.39;440372;1270;140895;-58
2022/06/12 16:21:47;;;;;;;7.80;1.80;;;;;;;25.86;31.93;99568.66;433487;1270;140533;-58
2022/06/12 16:32:09;;;;;;;2.40;1.20;;;;;;;25.80;32.14;99562.39;431862;1270;142033;-58
2022/06/12 16:42:31;;;;;;;4.40;2.20;;;;;;;25.80;31.97;99550.15;437249;1269;140901;-58
2022/06/12 16:52:53;;;;;;;1.20;1.00;;;;;;;25.88;31.90;99536.33;445441;1269;141087;-58
2022/06/12 17:03:15;;;;;;;4.10;1.60;;;;;;;25.70;31.97;99525.17;441858;1270;141894;-59
2022/06/12 17:13:38;;;;;;;13.40;2.90;;;;;;;25.42;32.25;99526.64;438946;1270;141859;-58
2022/06/12 17:24:00;;;;;;;3.50;1.50;;;;;;;25.14;33.56;99539.96;432660;1270;141038;-58
2022/06/12 17:34:22;;;;;;;3.40;1.70;;;;;;;24.77;34.75;99543.41;433032;1270;141338;-57
2022/06/12 17:44:44;;;;;;;17.30;3.30;;;;;;;24.31;36.71;99543.35;433644;1269;141543;-58
2022/06/12 17:55:08;;;;;;;2.90;1.70;;;;;;;23.82;38.51;99540.80;433520;1269;147107;-60
2022/06/12 18:05:30;;;;;;;3.30;2.10;;;;;;;23.45;37.53;99534.67;431934;1270;142280;-59
2022/06/12 18:26:33;;;;;;;4.20;2.60;;;;;;;22.97;38.51;99521.41;432624;1270;141597;-59
2022/06/12 18:36:55;;;;;;;4.70;2.40;;;;;;;22.63;39.57;99518.59;432347;1270;140330;-58
2022/06/12 18:47:17;;;;;;;2.30;2.10;;;;;;;22.31;40.02;99518.64;431853;1270;140908;-58
2022/06/12 18:57:40;;;;;;;4.20;2.10;;;;;;;21.98;40.79;99518.06;431474;1270;146151;-58
2022/06/12 19:08:02;;;;;;;2.60;2.10;;;;;;;21.64;41.45;99525.80;431088;1270;142751;-58
2022/06/12 19:18:24;;;;;;;4.60;2.60;;;;;;;21.35;42.21;99532.64;432180;1270;144977;-59
2022/06/12 19:28:46;;;;;;;4.00;2.70;;;;;;;21.03;43.23;99540.30;433828;1270;141584;-61
2022/06/12 19:39:10;;;;;;;7.00;3.60;;;;;;;20.73;44.12;99540.00;437781;1270;144917;-58
2022/06/12 19:49:31;;;;;;;3.80;3.20;;;;;;;20.42;45.62;99545.58;436723;1269;146355;-62
2022/06/12 19:59:54;;;;;;;4.40;3.10;;;;;;;20.05;47.89;99534.23;434700;1270;143258;-57
2022/06/12 20:10:17;;;;;;;4.90;4.00;;;;;;;19.69;48.28;99522.85;432806;1269;142250;-57
2022/06/12 20:20:41;;;;;;;3.90;3.00;;;;;;;19.39;48.88;99516.30;431161;1270;143595;-57
2022/06/12 20:31:04;;;;;;;6.00;3.30;;;;;;;19.11;49.81;99511.77;430754;1270;289713;-58
2022/06/12 20:41:27;;;;;;;7.30;3.00;;;;;;;18.90;50.53;99516.88;430922;1270;142960;-58
2022/06/12 20:51:50;;;;;;;5.50;3.80;;;;;;;18.66;51.50;99511.43;432088;1270;141678;-60
2022/06/12 21:02:12;;;;;;;5.50;3.80;;;;;;;18.37;52.51;99514.27;431363;1270;141227;-55
2022/06/12 21:12:34;;;;;;;5.90;5.00;;;;;;;18.17;53.48;99513.74;431938;1270;142990;-59
2022/06/12 21:22:58;;;;;;;6.40;4.40;;;;;;;18.01;54.32;99499.81;431267;1270;141661;-59
2022/06/12 21:33:20;;;;;;;8.40;6.50;;;;;;;17.85;55.03;99500.62;431650;1270;142869;-58
2022/06/12 21:43:43;;;;;;;8.10;7.20;;;;;;;17.76;56.36;99490.31;431791;1269;141874;-58
2022/06/12 22:04:47;;;;;;;9.40;8.30;;;;;;;17.86;58.12;99479.54;431543;1270;141251;-58
2022/06/12 22:15:12;;;;;;;7.20;6.50;;;;;;;17.76;58.58;99471.04;432452;1270;141738;-57
2022/06/12 22:25:33;;;;;;;10.10;8.00;;;;;;;17.60;59.25;99458.73;441157;1270;142919;-58
2022/06/12 22:35:55;;;;;;;8.10;7.30;;;;;;;17.58;59.85;99451.35;434208;1269;143225;-59
2022/06/12 22:46:17;;;;;;;9.50;7.40;;;;;;;17.60;60.30;99435.77;447937;1270;142231;-59
2022/06/12 22:56:39;;;;;;;7.70;6.50;;;;;;;17.56;60.51;99424.98;438383;1270;142836;-58
2022/06/12 23:07:01;;;;;;;6.40;5.80;;;;;;;17.55;60.88;99425.09;435944;1270;142567;-59
2022/06/12 23:17:23;;;;;;;6.90;6.40;;;;;;;17.58;60.98;99425.48;437302;1270;143241;-58
2022/06/12 23:27:44;;;;;;;6.70;6.10;;;;;;;17.53;61.03;99407.91;445477;1269;142389;-58
2022/06/12 23:38:06;;;;;;;10.70;6.80;;;;;;;17.33;61.63;99395.73;442403;1269;142433;-59
2022/06/12 23:48:28;;;;;;;16.30;7.70;;;;;;;17.07;62.22;99389.64;447234;1270;142073;-58
2022/06/12 23:58:49;;;;;;;6.90;6.10;;;;;;;16.87;62.96;99394.33;442901;1270;149640;-58
